Safita, Syria

9:32 PM EEST on September 17, 2014 (GMT +0300)
Bassel Al-Assad International | Change Station
CLOSE
Current Station
Airport
Location: Lattakia,
Elevation: 154 ft
Nearby Weather Stations

Elev 154 ft 35.40 °N, 35.95 °E | Updated 32 minutes ago

Clear
Clear
73 °F
Feels Like 73 °F
N
5
Wind Variable Wind from NNW

Today
High -- | Low -- °F
--% Chance of Precip.
Yesterday
High -- | Low -- °F
Precip. -- in
6:19 AM 6:39 PM
Waning Crescent, 34% visible
Pressure 29.77 in
Visibility -9999.0 miles
Clouds
Dew Point 64 °F
Humidity 73%
Rainfall 0.00 in
Snow Depth Not available.
UV Not available.
Pollen Not available.
Air Quality Not available.
Flu Activity Not available.
METAR OSLK 171800Z 33004KT CAVOK 23/18 Q1008

More Conditions Fewer Conditions

Pressure 29.77 in
Visibility -9999.0 miles
Clouds
Dew Point 64 °F
Humidity 73%
Rainfall 0.00 in
Snow Depth Not available.
UV Not available.
Pollen Not available.
Air Quality Not available.
Flu Activity Not available.
METAR OSLK 171800Z 33004KT CAVOK 23/18 Q1008

More Conditions Fewer Conditions

10-Day Weather Forecast

Almanac

Astronomy

Sep. 17, 2014 Rise Set
Actual Time 6:19 AM EEST 6:39 PM EEST
Civil Twilight 5:54 AM EEST 7:05 PM EEST
Nautical Twilight 5:24 AM EEST 7:34 PM EEST
Astronomical Twilight 4:54 AM EEST 8:04 PM EEST
Moon 12:11 AM EEST 2:24 PM EEST
Length of Visible Light 13h 10m
Length of Day
12h 20m
Tomorrow will be 2m 9s shorter.
Waning Crescent, 34% of the Moon is Illuminated
Today
Waning Crescent
Sep 24
New
Oct 1
First Quarter
Oct 8
Full
Oct 15
Last Quarter

Today's Extremes

Country Highs Country Lows

Community

WunderPhotos

Upload Photos

1,754,127 photos uploaded!

WunderBlogs® & News

Nearby

Snow Depth

Not available.

Earthquake Activity

City Distance Mag. Time & Date
No recent earthquake activity has been reported nearby.
Minimum magnitude displayed is 2.5.

Coastal Water Temperatures

Place Temperature
No Stations Reporting

Nearby Weather Stations